Time;durP1;ratioP1;P1;durP2;ratioP2;P2;SDS_P1;SDS_P2;PMS_P1;PMS_P2;Temp;Humidity;BMP_temperature;BMP_pressure;BME280_temperature;BME280_humidity;BME280_pressure;Samples;Min_cycle;Max_cycle;Signal;HPM_P1;HPM_P2
2023/02/10 00:00:05;;;;;;;28.20;12.05;;;;;;;;;;5085086;28;20168;-67
2023/02/10 00:02:30;;;;;;;27.07;11.07;;;;;;;;;;5090345;28;20036;-68
2023/02/10 00:04:56;;;;;;;28.40;11.70;;;;;;;;;;5084953;28;20455;-66
2023/02/10 00:07:21;;;;;;;27.25;10.93;;;;;;;;;;5071714;28;20086;-66
2023/02/10 00:09:47;;;;;;;27.40;11.10;;;;;;;;;;5083820;28;20075;-68
2023/02/10 00:12:13;;;;;;;28.48;11.30;;;;;;;;;;5087411;28;20028;-67
2023/02/10 00:14:38;;;;;;;26.15;10.52;;;;;;;;;;5071456;28;20024;-66
2023/02/10 00:17:04;;;;;;;24.88;10.77;;;;;;;;;;5074961;28;20096;-68
2023/02/10 00:19:30;;;;;;;27.05;10.13;;;;;;;;;;5076493;28;20028;-67
2023/02/10 00:21:56;;;;;;;28.60;10.93;;;;;;;;;;5077182;28;20035;-66
2023/02/10 00:24:21;;;;;;;28.75;10.95;;;;;;;;;;5079334;28;20020;-68
2023/02/10 00:26:47;;;;;;;27.77;10.75;;;;;;;;;;5074778;28;20481;-68
2023/02/10 00:29:13;;;;;;;25.17;10.07;;;;;;;;;;5079044;28;20016;-66
2023/02/10 00:31:38;;;;;;;27.70;11.05;;;;;;;;;;5082048;28;20346;-68
2023/02/10 00:34:03;;;;;;;27.52;10.45;;;;;;;;;;5071680;28;20039;-66
2023/02/10 00:36:28;;;;;;;23.83;9.35;;;;;;;;;;5080004;28;20117;-65
2023/02/10 00:38:53;;;;;;;27.38;10.18;;;;;;;;;;5085180;28;20029;-66
2023/02/10 00:41:20;;;;;;;25.20;10.15;;;;;;;;;;5081783;28;20225;-67
2023/02/10 00:43:45;;;;;;;29.95;10.25;;;;;;;;;;5077905;28;20024;-67
2023/02/10 00:46:14;;;;;;;27.37;10.53;;;;;;;;;;5076992;28;20031;-68
2023/02/10 00:48:40;;;;;;;25.17;10.77;;;;;;;;;;5078203;28;20527;-66
2023/02/10 00:51:05;;;;;;;25.37;10.43;;;;;;;;;;5100572;28;20423;-68
2023/02/10 00:53:30;;;;;;;26.77;10.43;;;;;;;;;;5090575;28;20035;-66
2023/02/10 00:55:55;;;;;;;25.70;10.40;;;;;;;;;;5090563;28;20028;-67
2023/02/10 00:58:20;;;;;;;25.70;10.63;;;;;;;;;;5083996;28;20021;-66
2023/02/10 01:00:46;;;;;;;26.83;10.97;;;;;;;;;;5096843;28;20378;-67
2023/02/10 01:03:11;;;;;;;24.13;9.13;;;;;;;;;;5100225;28;20021;-67
2023/02/10 01:05:37;;;;;;;26.37;10.20;;;;;;;;;;5085248;28;20020;-66
2023/02/10 01:08:02;;;;;;;26.88;10.57;;;;;;;;;;5085603;28;20492;-69
2023/02/10 01:10:28;;;;;;;27.15;9.52;;;;;;;;;;5084812;28;20119;-66
2023/02/10 01:12:53;;;;;;;24.98;9.82;;;;;;;;;;5088046;28;20028;-67
2023/02/10 01:15:18;;;;;;;24.17;9.57;;;;;;;;;;5077538;28;20024;-66
2023/02/10 01:17:43;;;;;;;25.70;9.63;;;;;;;;;;5077548;28;20024;-67
2023/02/10 01:20:08;;;;;;;21.40;9.25;;;;;;;;;;5080747;28;20032;-66
2023/02/10 01:22:34;;;;;;;23.15;9.43;;;;;;;;;;5088409;28;20105;-67
2023/02/10 01:24:59;;;;;;;24.53;9.60;;;;;;;;;;5089402;28;20032;-67
2023/02/10 01:27:24;;;;;;;24.17;8.83;;;;;;;;;;5083628;28;20107;-67
2023/02/10 01:29:49;;;;;;;21.48;8.55;;;;;;;;;;5080494;28;20032;-67
2023/02/10 01:32:14;;;;;;;22.80;9.40;;;;;;;;;;5087501;28;20115;-68
2023/02/10 01:34:39;;;;;;;25.48;9.45;;;;;;;;;;5084703;28;20131;-67
2023/02/10 01:37:04;;;;;;;24.50;10.40;;;;;;;;;;5079661;28;20095;-69
2023/02/10 01:39:30;;;;;;;22.17;8.75;;;;;;;;;;5081777;28;20032;-67
2023/02/10 01:41:55;;;;;;;26.42;9.77;;;;;;;;;;5087410;28;20020;-68
2023/02/10 01:44:20;;;;;;;26.20;9.53;;;;;;;;;;5087581;28;20055;-68
2023/02/10 01:46:46;;;;;;;24.30;9.82;;;;;;;;;;5071721;28;20070;-68
2023/02/10 01:49:14;;;;;;;26.38;10.45;;;;;;;;;;5084584;28;20019;-67
2023/02/10 01:51:44;;;;;;;29.25;10.73;;;;;;;;;;5079178;28;20092;-67
2023/02/10 01:54:12;;;;;;;26.73;9.65;;;;;;;;;;5085374;28;20023;-68
2023/02/10 01:56:38;;;;;;;27.67;10.48;;;;;;;;;;5090085;28;20380;-65
2023/02/10 01:59:03;;;;;;;26.10;9.57;;;;;;;;;;5090147;28;20016;-68
2023/02/10 02:01:28;;;;;;;25.57;9.73;;;;;;;;;;5077014;28;20466;-66
2023/02/10 02:03:53;;;;;;;24.53;9.37;;;;;;;;;;5079152;28;20447;-67
2023/02/10 02:06:18;;;;;;;24.40;10.10;;;;;;;;;;5082257;28;20580;-66
2023/02/10 02:08:44;;;;;;;25.47;9.83;;;;;;;;;;5088661;28;20543;-67
2023/02/10 02:11:11;;;;;;;27.87;10.30;;;;;;;;;;5091060;28;20028;-66
2023/02/10 02:13:49;;;;;;;25.92;10.10;;;;;;;;;;5076423;28;20065;-66
2023/02/10 02:16:23;;;;;;;22.15;9.43;;;;;;;;;;5084735;28;20028;-67
2023/02/10 02:18:57;;;;;;;29.35;9.75;;;;;;;;;;5089488;28;20058;-68
2023/02/10 02:21:22;;;;;;;27.40;10.23;;;;;;;;;;5076602;28;20449;-67
2023/02/10 02:24:01;;;;;;;24.75;10.63;;;;;;;;;;5077227;28;20379;-67
2023/02/10 02:26:38;;;;;;;26.20;10.40;;;;;;;;;;5093627;28;20024;-66
2023/02/10 02:29:17;;;;;;;23.70;8.93;;;;;;;;;;5076468;28;20035;-67
2023/02/10 02:31:51;;;;;;;26.38;10.73;;;;;;;;;;5094370;28;20358;-67
2023/02/10 02:34:21;;;;;;;27.05;10.23;;;;;;;;;;5088586;28;20020;-67
2023/02/10 02:36:49;;;;;;;23.92;9.27;;;;;;;;;;5090394;28;20070;-69
2023/02/10 02:39:14;;;;;;;27.55;10.38;;;;;;;;;;5092186;28;20029;-67
2023/02/10 02:41:40;;;;;;;26.77;9.40;;;;;;;;;;5075518;28;20035;-69
2023/02/10 02:44:05;;;;;;;25.00;9.82;;;;;;;;;;5077289;28;20066;-66
2023/02/10 02:46:30;;;;;;;27.23;11.07;;;;;;;;;;5094917;28;20382;-65
2023/02/10 02:49:09;;;;;;;24.63;9.60;;;;;;;;;;5082830;28;20034;-66
2023/02/10 02:51:34;;;;;;;;;;;;;;;;;;5087253;28;20048;-67
2023/02/10 02:54:16;;;;;;;29.58;9.73;;;;;;;;;;5088508;28;20070;-68
2023/02/10 02:56:49;;;;;;;27.17;10.52;;;;;;;;;;5094820;28;20077;-67
2023/02/10 02:59:19;;;;;;;26.50;9.48;;;;;;;;;;5081785;28;20066;-67
2023/02/10 03:01:51;;;;;;;25.67;9.73;;;;;;;;;;5087447;28;20024;-66
2023/02/10 03:04:17;;;;;;;27.33;10.55;;;;;;;;;;5080298;28;20429;-67
2023/02/10 03:06:42;;;;;;;26.60;9.80;;;;;;;;;;5080062;28;20020;-67
2023/02/10 03:09:07;;;;;;;24.00;9.73;;;;;;;;;;5085401;28;20017;-67
2023/02/10 03:11:33;;;;;;;26.23;10.10;;;;;;;;;;5088204;28;20035;-67
2023/02/10 03:13:58;;;;;;;26.65;9.80;;;;;;;;;;5083514;28;20013;-65
2023/02/10 03:16:23;;;;;;;27.98;10.23;;;;;;;;;;5089035;28;20027;-66
2023/02/10 03:18:48;;;;;;;23.97;9.40;;;;;;;;;;5082424;28;20025;-68
2023/02/10 03:21:13;;;;;;;26.57;9.37;;;;;;;;;;5087172;28;20376;-68
2023/02/10 03:23:38;;;;;;;23.23;9.40;;;;;;;;;;5097946;28;20024;-67
2023/02/10 03:26:03;;;;;;;27.63;10.23;;;;;;;;;;5091245;28;20036;-67
2023/02/10 03:28:29;;;;;;;28.17;10.50;;;;;;;;;;5087234;28;20144;-66
2023/02/10 03:30:55;;;;;;;29.50;10.48;;;;;;;;;;5076907;28;20501;-69
2023/02/10 03:33:20;;;;;;;26.45;9.80;;;;;;;;;;5079470;28;20439;-66
2023/02/10 03:35:45;;;;;;;27.93;9.80;;;;;;;;;;5079657;28;20032;-65
2023/02/10 03:38:11;;;;;;;25.23;9.40;;;;;;;;;;5079286;28;20031;-67
2023/02/10 03:40:36;;;;;;;26.77;10.35;;;;;;;;;;5074776;28;20481;-67
2023/02/10 03:43:02;;;;;;;26.40;10.40;;;;;;;;;;5075720;28;20432;-67
2023/02/10 03:45:27;;;;;;;27.50;10.57;;;;;;;;;;5077809;28;20481;-68
2023/02/10 03:47:52;;;;;;;24.70;9.77;;;;;;;;;;5082651;28;20021;-66
2023/02/10 03:50:17;;;;;;;29.23;10.57;;;;;;;;;;5076701;28;20039;-66
2023/02/10 03:52:43;;;;;;;29.87;11.23;;;;;;;;;;5095107;28;20534;-68
2023/02/10 03:55:08;;;;;;;26.40;9.77;;;;;;;;;;5088246;28;20050;-68
2023/02/10 03:57:33;;;;;;;29.57;11.90;;;;;;;;;;5086991;28;20111;-65
2023/02/10 03:59:58;;;;;;;23.57;9.27;;;;;;;;;;5080348;28;20020;-69
2023/02/10 04:02:24;;;;;;;23.15;9.48;;;;;;;;;;5092477;28;20027;-66
2023/02/10 04:04:49;;;;;;;25.97;10.43;;;;;;;;;;5096050;28;20119;-67
2023/02/10 04:07:14;;;;;;;25.07;9.90;;;;;;;;;;5099873;28;20059;-70
2023/02/10 04:09:39;;;;;;;24.77;9.90;;;;;;;;;;5105887;28;20091;-68
2023/02/10 04:12:05;;;;;;;26.83;10.13;;;;;;;;;;5093319;28;20036;-69
2023/02/10 04:14:30;;;;;;;27.55;10.18;;;;;;;;;;5095001;28;20028;-69
2023/02/10 04:16:55;;;;;;;26.63;9.85;;;;;;;;;;5093452;28;20024;-67
2023/02/10 04:19:20;;;;;;;23.30;9.43;;;;;;;;;;5089347;28;20059;-68
2023/02/10 04:21:45;;;;;;;26.83;9.83;;;;;;;;;;5084791;28;20027;-66
2023/02/10 04:24:10;;;;;;;23.87;8.60;;;;;;;;;;5093939;28;20023;-68
2023/02/10 04:26:36;;;;;;;21.40;9.07;;;;;;;;;;5090574;28;20028;-66
2023/02/10 04:29:01;;;;;;;22.02;8.95;;;;;;;;;;5084155;28;20028;-67
2023/02/10 04:31:26;;;;;;;25.05;9.70;;;;;;;;;;5085682;28;20077;-67
2023/02/10 04:33:51;;;;;;;25.58;9.60;;;;;;;;;;5084114;28;20020;-67
2023/02/10 04:36:16;;;;;;;24.58;9.13;;;;;;;;;;5083716;28;20285;-67
2023/02/10 04:38:41;;;;;;;25.53;9.73;;;;;;;;;;5088848;28;20024;-68
2023/02/10 04:41:07;;;;;;;21.20;8.52;;;;;;;;;;5087754;28;20532;-65
2023/02/10 04:43:32;;;;;;;21.90;9.10;;;;;;;;;;5079728;28;20028;-67
2023/02/10 04:45:58;;;;;;;24.38;9.85;;;;;;;;;;5073303;28;20066;-66
2023/02/10 04:48:23;;;;;;;22.33;9.57;;;;;;;;;;5084624;28;20016;-66
2023/02/10 04:50:48;;;;;;;27.10;9.60;;;;;;;;;;5078904;28;20488;-67
2023/02/10 04:53:13;;;;;;;24.43;9.90;;;;;;;;;;5082986;28;20142;-67
2023/02/10 04:55:38;;;;;;;26.63;9.68;;;;;;;;;;5085199;28;20469;-66
2023/02/10 04:58:03;;;;;;;26.07;10.00;;;;;;;;;;5080276;28;20020;-66
2023/02/10 05:00:29;;;;;;;23.50;10.20;;;;;;;;;;5081091;28;20375;-67
2023/02/10 05:02:54;;;;;;;24.80;9.83;;;;;;;;;;5087529;28;20057;-73
2023/02/10 05:05:20;;;;;;;24.60;9.20;;;;;;;;;;5090359;28;20038;-67
2023/02/10 05:07:45;;;;;;;25.75;10.52;;;;;;;;;;5071579;28;20025;-67
2023/02/10 05:10:10;;;;;;;25.35;10.43;;;;;;;;;;5076782;28;20369;-67
2023/02/10 05:12:35;;;;;;;24.07;9.93;;;;;;;;;;5089119;28;20036;-67
2023/02/10 05:15:00;;;;;;;22.80;9.03;;;;;;;;;;5087724;28;20020;-68
2023/02/10 05:17:25;;;;;;;28.02;10.07;;;;;;;;;;5087933;28;20030;-65
2023/02/10 05:19:51;;;;;;;24.23;10.10;;;;;;;;;;5084558;28;20016;-67
2023/02/10 05:22:16;;;;;;;26.55;11.15;;;;;;;;;;5083810;28;20024;-67
2023/02/10 05:24:41;;;;;;;23.23;9.32;;;;;;;;;;5078922;28;20021;-68
2023/02/10 05:27:06;;;;;;;27.52;10.50;;;;;;;;;;5072241;28;20025;-66
2023/02/10 05:29:31;;;;;;;24.87;10.07;;;;;;;;;;5075619;28;20035;-66
2023/02/10 05:31:57;;;;;;;24.52;11.35;;;;;;;;;;5079935;28;20120;-67
2023/02/10 05:34:22;;;;;;;29.95;13.98;;;;;;;;;;5078942;28;20047;-67
2023/02/10 05:36:47;;;;;;;26.07;9.97;;;;;;;;;;5074860;28;20032;-66
2023/02/10 05:39:24;;;;;;;22.57;9.60;;;;;;;;;;5085325;28;20043;-68
2023/02/10 05:41:54;;;;;;;26.67;11.82;;;;;;;;;;5083779;28;20450;-67
2023/02/10 05:44:19;;;;;;;25.02;10.40;;;;;;;;;;5079614;28;20103;-68
2023/02/10 05:46:44;;;;;;;25.63;10.95;;;;;;;;;;5072567;28;20126;-67
2023/02/10 05:49:09;;;;;;;27.23;10.38;;;;;;;;;;5087352;28;20019;-68
2023/02/10 05:51:34;;;;;;;28.17;10.87;;;;;;;;;;5073148;28;20040;-66
2023/02/10 05:54:00;;;;;;;25.75;11.30;;;;;;;;;;5083553;28;20047;-67
2023/02/10 05:56:25;;;;;;;25.47;10.93;;;;;;;;;;5077887;28;20020;-67
2023/02/10 05:58:50;;;;;;;27.13;11.07;;;;;;;;;;5073986;28;20016;-67
2023/02/10 06:01:15;;;;;;;25.58;10.65;;;;;;;;;;5079492;28;20031;-70
2023/02/10 06:03:40;;;;;;;28.73;11.80;;;;;;;;;;5077929;28;20476;-68
2023/02/10 06:06:05;;;;;;;27.48;11.48;;;;;;;;;;5073545;28;20051;-65
2023/02/10 06:08:30;;;;;;;26.57;11.17;;;;;;;;;;5070372;28;20894;-67
2023/02/10 06:10:56;;;;;;;30.67;11.97;;;;;;;;;;5065809;28;20830;-65
2023/02/10 06:13:21;;;;;;;23.65;10.82;;;;;;;;;;5073649;28;20033;-68
2023/02/10 06:15:46;;;;;;;26.20;10.90;;;;;;;;;;5069876;28;20612;-67
2023/02/10 06:18:11;;;;;;;22.67;10.33;;;;;;;;;;5069430;28;21073;-67
2023/02/10 06:20:36;;;;;;;23.63;10.40;;;;;;;;;;5073756;28;20016;-66
2023/02/10 06:23:02;;;;;;;26.57;11.37;;;;;;;;;;5074368;28;20067;-66
2023/02/10 06:25:27;;;;;;;29.37;10.93;;;;;;;;;;5087045;28;20027;-66
2023/02/10 06:27:52;;;;;;;24.15;10.35;;;;;;;;;;5088343;28;20597;-68
2023/02/10 06:30:18;;;;;;;26.43;10.97;;;;;;;;;;5089554;28;20028;-66
2023/02/10 06:32:43;;;;;;;29.13;12.13;;;;;;;;;;5084265;28;20028;-68
2023/02/10 06:35:08;;;;;;;29.80;11.52;;;;;;;;;;5087202;28;20399;-66
2023/02/10 06:37:34;;;;;;;25.23;11.02;;;;;;;;;;5089959;28;20040;-67
2023/02/10 06:39:59;;;;;;;26.50;10.60;;;;;;;;;;5090705;28;20058;-66
2023/02/10 06:42:24;;;;;;;27.75;11.48;;;;;;;;;;5092711;28;20541;-66
2023/02/10 06:44:49;;;;;;;23.83;10.60;;;;;;;;;;5091831;28;20118;-66
2023/02/10 06:47:14;;;;;;;26.23;11.52;;;;;;;;;;5092100;28;20504;-68
2023/02/10 06:49:40;;;;;;;29.13;11.97;;;;;;;;;;5093808;28;20034;-65
2023/02/10 06:52:05;;;;;;;26.10;11.23;;;;;;;;;;5090186;28;20397;-67
2023/02/10 06:54:30;;;;;;;29.35;12.20;;;;;;;;;;5094117;28;20978;-66
2023/02/10 06:56:55;;;;;;;26.42;11.32;;;;;;;;;;5084455;28;20523;-67
2023/02/10 06:59:21;;;;;;;29.17;11.33;;;;;;;;;;5085586;28;20089;-69
2023/02/10 07:01:46;;;;;;;32.85;13.25;;;;;;;;;;5078586;28;20012;-65
2023/02/10 07:04:11;;;;;;;28.77;12.10;;;;;;;;;;5080252;28;20031;-67
2023/02/10 07:06:36;;;;;;;30.40;12.07;;;;;;;;;;5089703;28;20031;-66
2023/02/10 07:09:03;;;;;;;30.70;13.03;;;;;;;;;;5086776;28;20077;-66
2023/02/10 07:11:28;;;;;;;29.52;12.95;;;;;;;;;;5083103;28;20075;-68
2023/02/10 07:13:54;;;;;;;30.93;12.77;;;;;;;;;;5079437;28;20082;-67
2023/02/10 07:16:19;;;;;;;30.42;13.60;;;;;;;;;;5074460;28;20440;-68
2023/02/10 07:18:44;;;;;;;29.70;12.83;;;;;;;;;;5078629;28;20019;-66
2023/02/10 07:21:09;;;;;;;33.25;14.73;;;;;;;;;;5074328;28;20117;-67
2023/02/10 07:23:34;;;;;;;36.63;16.38;;;;;;;;;;5082348;28;20046;-66
2023/02/10 07:25:59;;;;;;;36.03;15.33;;;;;;;;;;5089826;28;20031;-67
2023/02/10 07:28:24;;;;;;;33.63;14.17;;;;;;;;;;5089117;28;20015;-68
2023/02/10 07:30:50;;;;;;;31.58;14.50;;;;;;;;;;5072530;28;20043;-68
2023/02/10 07:33:15;;;;;;;29.35;12.70;;;;;;;;;;5077246;28;20011;-66
2023/02/10 07:35:40;;;;;;;31.47;12.97;;;;;;;;;;5092803;28;20105;-66
2023/02/10 07:38:05;;;;;;;28.83;12.43;;;;;;;;;;5081639;28;20054;-66
2023/02/10 07:40:30;;;;;;;31.13;13.20;;;;;;;;;;5074851;28;20116;-67
2023/02/10 07:42:56;;;;;;;33.27;12.83;;;;;;;;;;5086157;28;20024;-66
2023/02/10 07:45:21;;;;;;;28.87;12.37;;;;;;;;;;5084719;28;20461;-65
2023/02/10 07:47:46;;;;;;;29.85;12.48;;;;;;;;;;5075359;28;20024;-66
2023/02/10 07:50:11;;;;;;;30.97;13.30;;;;;;;;;;5093277;28;20022;-67
2023/02/10 07:52:37;;;;;;;34.70;12.97;;;;;;;;;;5086644;28;20032;-65
2023/02/10 07:55:04;;;;;;;32.83;14.20;;;;;;;;;;5092469;28;20361;-66
2023/02/10 07:57:29;;;;;;;33.85;14.40;;;;;;;;;;5092837;28;20043;-66
2023/02/10 07:59:54;;;;;;;33.43;12.47;;;;;;;;;;5092346;28;20474;-65
2023/02/10 08:02:19;;;;;;;30.58;12.27;;;;;;;;;;5091701;28;20028;-65
2023/02/10 08:04:44;;;;;;;28.95;12.38;;;;;;;;;;5093072;28;20598;-66
2023/02/10 08:07:10;;;;;;;31.10;13.43;;;;;;;;;;5092481;28;20038;-65
2023/02/10 08:09:35;;;;;;;30.38;13.07;;;;;;;;;;5092216;28;20074;-66
2023/02/10 08:12:01;;;;;;;33.60;12.80;;;;;;;;;;5091469;28;20047;-66
2023/02/10 08:14:26;;;;;;;28.63;13.30;;;;;;;;;;5091855;28;20385;-67
2023/02/10 08:16:51;;;;;;;31.13;13.57;;;;;;;;;;5089877;28;20016;-67
2023/02/10 08:19:16;;;;;;;33.28;14.85;;;;;;;;;;5090622;28;20024;-65
2023/02/10 08:21:41;;;;;;;29.77;13.30;;;;;;;;;;5091420;28;20023;-65
2023/02/10 08:24:07;;;;;;;28.40;13.47;;;;;;;;;;5092687;28;20469;-65
2023/02/10 08:26:33;;;;;;;33.03;14.48;;;;;;;;;;5092675;28;20450;-66
2023/02/10 08:28:59;;;;;;;31.92;14.52;;;;;;;;;;5090360;28;20019;-67
2023/02/10 08:31:24;;;;;;;32.15;14.15;;;;;;;;;;5092985;28;20057;-66
2023/02/10 08:33:49;;;;;;;32.50;13.60;;;;;;;;;;5093224;28;20028;-65
2023/02/10 08:36:15;;;;;;;33.42;15.07;;;;;;;;;;5093542;28;20381;-69
2023/02/10 08:38:41;;;;;;;30.13;12.77;;;;;;;;;;5094474;28;20024;-67
2023/02/10 08:41:06;;;;;;;33.47;14.00;;;;;;;;;;5092187;28;20040;-65
2023/02/10 08:43:31;;;;;;;31.95;13.82;;;;;;;;;;5093248;28;20065;-66
2023/02/10 08:45:57;;;;;;;31.50;12.83;;;;;;;;;;5091043;28;20024;-65
2023/02/10 08:48:23;;;;;;;32.05;13.50;;;;;;;;;;5092459;28;20488;-68
2023/02/10 08:50:48;;;;;;;30.98;13.43;;;;;;;;;;5090948;28;20035;-67
2023/02/10 08:53:13;;;;;;;33.80;14.63;;;;;;;;;;5091630;28;20495;-66
2023/02/10 08:55:38;;;;;;;29.47;12.47;;;;;;;;;;5091714;28;20020;-67
2023/02/10 08:58:03;;;;;;;38.97;13.35;;;;;;;;;;5083092;28;20031;-68
2023/02/10 09:00:29;;;;;;;32.87;13.97;;;;;;;;;;5090668;28;20501;-66
2023/02/10 09:02:54;;;;;;;40.93;15.17;;;;;;;;;;5091057;28;20051;-66
2023/02/10 09:05:19;;;;;;;42.15;16.20;;;;;;;;;;5091413;28;20066;-67
2023/02/10 09:07:44;;;;;;;53.73;20.00;;;;;;;;;;5090586;28;20047;-66
2023/02/10 09:10:10;;;;;;;46.10;17.05;;;;;;;;;;5091614;28;20012;-66
2023/02/10 09:12:35;;;;;;;39.22;15.75;;;;;;;;;;5091454;28;20071;-67
2023/02/10 09:15:00;;;;;;;50.67;19.13;;;;;;;;;;5092487;28;20020;-66
2023/02/10 09:17:25;;;;;;;40.67;15.43;;;;;;;;;;5090890;28;20028;-68
2023/02/10 09:19:51;;;;;;;41.25;15.93;;;;;;;;;;5091152;28;20024;-65
2023/02/10 09:22:17;;;;;;;41.03;15.98;;;;;;;;;;5091372;28;20141;-66
2023/02/10 09:24:46;;;;;;;43.08;16.13;;;;;;;;;;5091631;28;20027;-65
2023/02/10 09:27:11;;;;;;;41.55;16.40;;;;;;;;;;5091022;28;20149;-66
2023/02/10 09:29:36;;;;;;;44.35;17.42;;;;;;;;;;5090371;28;20051;-66
2023/02/10 09:32:01;;;;;;;44.20;16.00;;;;;;;;;;5091757;28;20055;-66
2023/02/10 09:34:29;;;;;;;40.72;15.80;;;;;;;;;;5091055;28;20050;-66
2023/02/10 09:36:57;;;;;;;44.97;16.90;;;;;;;;;;5089946;28;20028;-65
2023/02/10 09:39:25;;;;;;;42.13;16.67;;;;;;;;;;5090520;28;20023;-65
2023/02/10 09:42:11;;;;;;;41.95;15.88;;;;;;;;;;5091576;28;20023;-65
2023/02/10 09:44:38;;;;;;;44.75;16.83;;;;;;;;;;5091626;28;20032;-66
2023/02/10 09:47:03;;;;;;;;;;;;;;;;;;5089890;28;20507;-66
2023/02/10 09:49:28;;;;;;;45.97;17.05;;;;;;;;;;5090639;28;20339;-65
2023/02/10 09:52:05;;;;;;;45.20;16.67;;;;;;;;;;5092097;28;20058;-65
2023/02/10 09:54:33;;;;;;;35.90;15.00;;;;;;;;;;5091463;28;20032;-66
2023/02/10 09:57:01;;;;;;;43.50;16.20;;;;;;;;;;5089608;28;20542;-65
2023/02/10 09:59:27;;;;;;;55.30;19.25;;;;;;;;;;5091321;28;20465;-66
2023/02/10 10:01:55;;;;;;;47.78;18.05;;;;;;;;;;5083681;28;20056;-65
2023/02/10 10:04:22;;;;;;;52.65;18.83;;;;;;;;;;5083136;28;20401;-65
2023/02/10 10:07:16;;;;;;;50.85;18.58;;;;;;;;;;5087200;28;20024;-65
2023/02/10 10:09:46;;;;;;;52.05;19.58;;;;;;;;;;5074885;28;20471;-65
2023/02/10 10:12:13;;;;;;;42.25;16.63;;;;;;;;;;5091434;28;20054;-65
2023/02/10 10:14:39;;;;;;;41.55;15.50;;;;;;;;;;5091845;28;20392;-66
2023/02/10 10:17:23;;;;;;;40.67;16.20;;;;;;;;;;5095930;28;20020;-66
2023/02/10 10:20:08;;;;;;;41.60;15.90;;;;;;;;;;5097816;28;20048;-66
2023/02/10 10:22:58;;;;;;;44.70;14.95;;;;;;;;;;5090598;28;20034;-66
2023/02/10 10:25:26;;;;;;;40.05;15.02;;;;;;;;;;5085729;28;20035;-67
2023/02/10 10:28:09;;;;;;;40.47;14.88;;;;;;;;;;5094862;28;20017;-65
2023/02/10 10:30:35;;;;;;;33.45;13.10;;;;;;;;;;5094161;28;20016;-64
2023/02/10 10:33:05;;;;;;;37.50;14.80;;;;;;;;;;5094272;28;20031;-67
2023/02/10 10:35:35;;;;;;;38.28;14.57;;;;;;;;;;5086325;28;20518;-65
2023/02/10 10:38:04;;;;;;;37.80;14.23;;;;;;;;;;5094234;28;20414;-66
2023/02/10 10:40:31;;;;;;;37.15;14.13;;;;;;;;;;5093941;28;20030;-65
2023/02/10 10:42:58;;;;;;;35.33;13.13;;;;;;;;;;5094520;28;20043;-66
2023/02/10 10:45:41;;;;;;;40.55;14.23;;;;;;;;;;5091000;28;20024;-66
2023/02/10 10:48:26;;;;;;;34.63;13.55;;;;;;;;;;5094261;28;20052;-66
2023/02/10 10:50:51;;;;;;;37.28;13.70;;;;;;;;;;5093803;28;20665;-66
2023/02/10 10:53:19;;;;;;;38.73;15.20;;;;;;;;;;5093995;28;20062;-65
2023/02/10 10:55:49;;;;;;;41.25;15.23;;;;;;;;;;5091520;28;20031;-67
2023/02/10 10:58:17;;;;;;;39.65;15.80;;;;;;;;;;5091975;28;20050;-65
2023/02/10 11:00:49;;;;;;;40.25;15.82;;;;;;;;;;5093248;28;20016;-64
2023/02/10 11:03:15;;;;;;;39.40;15.57;;;;;;;;;;5094142;28;20027;-65
2023/02/10 11:05:40;;;;;;;35.00;14.23;;;;;;;;;;5093520;28;20024;-65
2023/02/10 11:08:06;;;;;;;39.63;15.57;;;;;;;;;;5093511;28;20524;-66
2023/02/10 11:10:46;;;;;;;40.97;15.15;;;;;;;;;;5092544;28;20068;-66
2023/02/10 11:13:18;;;;;;;41.20;15.90;;;;;;;;;;5093666;28;20020;-67
2023/02/10 11:15:44;;;;;;;;;;;;;;;;;;5093157;28;20020;-66
2023/02/10 11:18:17;;;;;;;37.63;15.00;;;;;;;;;;5093540;28;19927;-66
2023/02/10 11:20:51;;;;;;;38.10;15.32;;;;;;;;;;5092824;28;20024;-67
2023/02/10 11:23:17;;;;;;;38.25;15.18;;;;;;;;;;5092949;28;20027;-66
2023/02/10 11:25:46;;;;;;;42.85;16.02;;;;;;;;;;5091817;28;20028;-65
2023/02/10 11:28:18;;;;;;;42.53;16.23;;;;;;;;;;5093266;28;20024;-65
2023/02/10 11:30:45;;;;;;;42.78;14.82;;;;;;;;;;5092609;28;20366;-67
2023/02/10 11:33:21;;;;;;;36.03;14.63;;;;;;;;;;5093434;28;20035;-66
2023/02/10 11:35:52;;;;;;;39.88;14.68;;;;;;;;;;5091457;28;20058;-65
2023/02/10 11:38:19;;;;;;;39.22;15.00;;;;;;;;;;5093746;28;20016;-64
2023/02/10 11:40:49;;;;;;;38.95;16.00;;;;;;;;;;5092856;28;20438;-65
2023/02/10 11:43:15;;;;;;;36.63;14.50;;;;;;;;;;5093182;28;20110;-66
2023/02/10 11:45:50;;;;;;;42.60;16.90;;;;;;;;;;5091822;28;20036;-67
2023/02/10 11:48:15;;;;;;;41.38;15.52;;;;;;;;;;5093638;28;20020;-66
2023/02/10 11:50:40;;;;;;;40.22;15.88;;;;;;;;;;5092705;28;20032;-64
2023/02/10 11:53:12;;;;;;;40.07;15.77;;;;;;;;;;5088982;28;20037;-65
2023/02/10 11:55:40;;;;;;;34.80;13.82;;;;;;;;;;5093287;28;20028;-66
2023/02/10 12:01:21;;;;;;;37.35;14.48;;;;;;;;;;5092891;28;20120;-65
2023/02/10 12:03:57;;;;;;;34.97;13.77;;;;;;;;;;5091445;28;20031;-65
2023/02/10 12:06:26;;;;;;;43.97;14.50;;;;;;;;;;5092294;28;20024;-69
2023/02/10 12:09:14;;;;;;;34.17;14.40;;;;;;;;;;5093149;28;20089;-64
2023/02/10 12:11:58;;;;;;;38.33;14.80;;;;;;;;;;5093733;28;20028;-65
2023/02/10 12:14:41;;;;;;;39.05;15.13;;;;;;;;;;5082771;28;20090;-66
2023/02/10 12:17:25;;;;;;;39.50;15.73;;;;;;;;;;5093395;28;20465;-66
2023/02/10 12:19:59;;;;;;;35.58;14.25;;;;;;;;;;5092788;28;20024;-66
2023/02/10 12:22:43;;;;;;;36.08;14.65;;;;;;;;;;5093702;28;20489;-66
2023/02/10 12:25:25;;;;;;;35.67;14.95;;;;;;;;;;5082271;28;20032;-66
2023/02/10 12:27:59;;;;;;;37.85;15.93;;;;;;;;;;5094169;28;20024;-66
2023/02/10 12:30:30;;;;;;;39.97;14.88;;;;;;;;;;5091810;28;20024;-66
2023/02/10 12:33:05;;;;;;;40.22;14.98;;;;;;;;;;5092467;28;20061;-65
2023/02/10 12:35:48;;;;;;;39.58;15.82;;;;;;;;;;5086831;28;20039;-65
2023/02/10 12:38:32;;;;;;;46.15;15.13;;;;;;;;;;5090635;28;20046;-66
2023/02/10 12:41:16;;;;;;;38.55;14.40;;;;;;;;;;5091539;28;20028;-66
2023/02/10 12:43:47;;;;;;;36.70;14.73;;;;;;;;;;5091962;28;20024;-67
2023/02/10 12:46:12;;;;;;;39.33;15.15;;;;;;;;;;5089979;28;20024;-66
2023/02/10 12:48:44;;;;;;;37.45;15.02;;;;;;;;;;5091870;28;20368;-67
2023/02/10 12:51:09;;;;;;;35.30;13.90;;;;;;;;;;5091339;28;20537;-66
2023/02/10 12:53:36;;;;;;;36.25;14.93;;;;;;;;;;5086516;28;20016;-66
2023/02/10 12:56:20;;;;;;;33.78;13.70;;;;;;;;;;5092163;28;20127;-65
2023/02/10 12:58:46;;;;;;;34.72;13.52;;;;;;;;;;5091375;28;20020;-66
2023/02/10 13:01:28;;;;;;;32.97;12.88;;;;;;;;;;5091353;28;20045;-66
2023/02/10 13:03:57;;;;;;;38.03;13.00;;;;;;;;;;5087924;28;20019;-65
2023/02/10 13:06:40;;;;;;;35.80;13.80;;;;;;;;;;5091333;28;20012;-65
2023/02/10 13:09:12;;;;;;;31.75;13.07;;;;;;;;;;5089989;28;20012;-67
2023/02/10 13:11:50;;;;;;;36.67;13.63;;;;;;;;;;5090928;28;20028;-68
2023/02/10 13:14:19;;;;;;;30.77;13.93;;;;;;;;;;5091123;28;20658;-66
2023/02/10 13:16:48;;;;;;;34.97;13.23;;;;;;;;;;5091037;28;20073;-66
2023/02/10 13:19:24;;;;;;;32.78;12.70;;;;;;;;;;5091670;28;20056;-66
2023/02/10 13:21:53;;;;;;;31.70;13.05;;;;;;;;;;5072090;28;20016;-66
2023/02/10 13:24:21;;;;;;;31.85;12.48;;;;;;;;;;5072118;28;20036;-67
2023/02/10 13:26:56;;;;;;;34.20;13.23;;;;;;;;;;5072006;28;20020;-66
2023/02/10 13:29:40;;;;;;;33.28;12.82;;;;;;;;;;5071125;28;20385;-66
2023/02/10 13:32:20;;;;;;;37.85;12.88;;;;;;;;;;5070706;28;20055;-67
2023/02/10 13:34:47;;;;;;;28.13;11.32;;;;;;;;;;5075346;28;20019;-67
2023/02/10 13:37:12;;;;;;;;;;;;;;;;;;5086586;28;20068;-67
2023/02/10 13:39:38;;;;;;;30.52;12.38;;;;;;;;;;5085882;28;19953;-66
2023/02/10 13:42:06;;;;;;;38.28;13.85;;;;;;;;;;5099208;28;20044;-67
2023/02/10 13:44:32;;;;;;;26.90;12.15;;;;;;;;;;5100945;28;20358;-67
2023/02/10 13:47:18;;;;;;;33.08;13.07;;;;;;;;;;5094244;28;20050;-66
2023/02/10 13:49:49;;;;;;;29.33;11.52;;;;;;;;;;5075594;28;20082;-66
2023/02/10 13:52:16;;;;;;;27.55;11.35;;;;;;;;;;5072081;28;20493;-66
2023/02/10 13:54:41;;;;;;;;;;;;;;;;;;5084254;28;20015;-66
2023/02/10 13:57:21;;;;;;;25.60;10.15;;;;;;;;;;5085072;28;20388;-67
2023/02/10 13:59:46;;;;;;;28.48;11.23;;;;;;;;;;5087534;28;20024;-64
2023/02/10 14:02:11;;;;;;;30.13;11.82;;;;;;;;;;5080302;28;20029;-67
2023/02/10 14:04:46;;;;;;;27.97;10.20;;;;;;;;;;5079084;28;20028;-66
2023/02/10 14:07:24;;;;;;;29.80;10.90;;;;;;;;;;5081244;28;20754;-68
2023/02/10 14:09:59;;;;;;;24.20;10.23;;;;;;;;;;5085837;28;20043;-65
2023/02/10 14:12:26;;;;;;;32.00;13.15;;;;;;;;;;5090834;28;20077;-65
2023/02/10 14:14:51;;;;;;;36.83;13.85;;;;;;;;;;5076997;28;20104;-66
2023/02/10 14:17:27;;;;;;;27.70;11.67;;;;;;;;;;5072088;28;20083;-68
2023/02/10 14:19:53;;;;;;;26.42;10.07;;;;;;;;;;5080909;28;20066;-67
2023/02/10 14:22:23;;;;;;;25.83;10.13;;;;;;;;;;5090619;28;20047;-64
2023/02/10 14:24:49;;;;;;;23.00;9.27;;;;;;;;;;5088175;28;20028;-65
2023/02/10 14:27:15;;;;;;;22.58;8.63;;;;;;;;;;5086203;28;20487;-66